sensor_id;sensor_type;location;lat;lon;timestamp;pressure;altitude;pressure_sealevel;temperature;humidity
68197;BME280;55019;49.382;11.358;2023-02-13T00:01:28;98588.16;;;1.89;90.85
68197;BME280;55019;49.382;11.358;2023-02-13T00:03:54;98590.19;;;1.81;91.18
68197;BME280;55019;49.382;11.358;2023-02-13T00:06:19;98587.69;;;1.79;91.49
68197;BME280;55019;49.382;11.358;2023-02-13T00:08:45;98579.88;;;1.84;91.70
68197;BME280;55019;49.382;11.358;2023-02-13T00:11:10;98570.59;;;1.61;92.96
68197;BME280;55019;49.382;11.358;2023-02-13T00:13:35;98580.72;;;1.41;96.06
68197;BME280;55019;49.382;11.358;2023-02-13T00:16:02;98579.66;;;1.47;96.41
68197;BME280;55019;49.382;11.358;2023-02-13T00:18:28;98573.91;;;1.42;95.76
68197;BME280;55019;49.382;11.358;2023-02-13T00:21:09;98583.25;;;1.41;95.13
68197;BME280;55019;49.382;11.358;2023-02-13T00:23:36;98573.97;;;1.40;94.24
68197;BME280;55019;49.382;11.358;2023-02-13T00:26:08;98590.56;;;1.29;93.91
68197;BME280;55019;49.382;11.358;2023-02-13T00:28:34;98580.47;;;1.26;93.86
68197;BME280;55019;49.382;11.358;2023-02-13T00:31:08;98586.06;;;1.36;93.54
68197;BME280;55019;49.382;11.358;2023-02-13T00:33:35;98585.69;;;1.23;93.29
68197;BME280;55019;49.382;11.358;2023-02-13T00:36:10;98580.94;;;1.14;93.58
68197;BME280;55019;49.382;11.358;2023-02-13T00:38:37;98588.66;;;1.13;93.71
68197;BME280;55019;49.382;11.358;2023-02-13T00:41:04;98586.88;;;1.15;92.76
68197;BME280;55019;49.382;11.358;2023-02-13T00:43:29;98590.16;;;0.95;93.28
68197;BME280;55019;49.382;11.358;2023-02-13T00:45:55;98578.88;;;1.02;93.04
68197;BME280;55019;49.382;11.358;2023-02-13T00:48:23;98581.19;;;1.08;93.17
68197;BME280;55019;49.382;11.358;2023-02-13T00:50:48;98576.09;;;1.08;93.78
68197;BME280;55019;49.382;11.358;2023-02-13T00:53:15;98568.06;;;0.96;93.99
68197;BME280;55019;49.382;11.358;2023-02-13T00:55:41;98563.81;;;0.96;94.10
68197;BME280;55019;49.382;11.358;2023-02-13T00:58:06;98565.91;;;1.08;93.80
68197;BME280;55019;49.382;11.358;2023-02-13T01:00:32;98563.81;;;0.73;96.15
68197;BME280;55019;49.382;11.358;2023-02-13T01:02:57;98572.16;;;0.78;97.03
68197;BME280;55019;49.382;11.358;2023-02-13T01:05:23;98560.19;;;0.80;97.04
68197;BME280;55019;49.382;11.358;2023-02-13T01:07:49;98574.22;;;0.90;95.49
68197;BME280;55019;49.382;11.358;2023-02-13T01:10:14;98565.41;;;0.77;95.31
68197;BME280;55019;49.382;11.358;2023-02-13T01:12:40;98572.69;;;0.86;94.97
68197;BME280;55019;49.382;11.358;2023-02-13T01:15:05;98574.69;;;0.78;94.75
68197;BME280;55019;49.382;11.358;2023-02-13T01:17:31;98567.06;;;0.78;94.60
68197;BME280;55019;49.382;11.358;2023-02-13T01:19:56;98577.22;;;0.78;94.83
68197;BME280;55019;49.382;11.358;2023-02-13T01:22:22;98574.00;;;0.73;94.29
68197;BME280;55019;49.382;11.358;2023-02-13T01:24:47;98566.31;;;0.75;94.10
68197;BME280;55019;49.382;11.358;2023-02-13T01:27:13;98565.47;;;0.74;93.79
68197;BME280;55019;49.382;11.358;2023-02-13T01:29:38;98560.91;;;0.61;94.30
68197;BME280;55019;49.382;11.358;2023-02-13T01:32:04;98551.16;;;0.49;93.31
68197;BME280;55019;49.382;11.358;2023-02-13T01:34:31;98564.19;;;0.40;94.11
68197;BME280;55019;49.382;11.358;2023-02-13T01:36:57;98570.25;;;0.37;94.26
68197;BME280;55019;49.382;11.358;2023-02-13T01:39:22;98570.78;;;0.45;94.26
68197;BME280;55019;49.382;11.358;2023-02-13T01:41:47;98552.16;;;0.45;93.77
68197;BME280;55019;49.382;11.358;2023-02-13T01:44:45;98566.13;;;0.58;93.58
68197;BME280;55019;49.382;11.358;2023-02-13T01:47:12;98576.69;;;0.46;92.69
68197;BME280;55019;49.382;11.358;2023-02-13T01:49:38;98558.06;;;0.45;92.73
68197;BME280;55019;49.382;11.358;2023-02-13T01:52:06;98551.91;;;0.28;93.75
68197;BME280;55019;49.382;11.358;2023-02-13T01:54:33;98565.38;;;0.31;93.38
68197;BME280;55019;49.382;11.358;2023-02-13T01:57:06;98568.97;;;0.24;93.42
68197;BME280;55019;49.382;11.358;2023-02-13T01:59:38;98553.72;;;0.24;93.71
68197;BME280;55019;49.382;11.358;2023-02-13T02:04:39;98557.78;;;0.05;94.48
68197;BME280;55019;49.382;11.358;2023-02-13T02:07:13;98555.81;;;0.13;94.15
68197;BME280;55019;49.382;11.358;2023-02-13T02:09:41;98561.00;;;0.10;94.46
68197;BME280;55019;49.382;11.358;2023-02-13T02:12:20;98554.25;;;0.09;93.76
68197;BME280;55019;49.382;11.358;2023-02-13T02:14:48;98554.69;;;-0.03;94.28
68197;BME280;55019;49.382;11.358;2023-02-13T02:17:14;98550.22;;;0.04;94.31
68197;BME280;55019;49.382;11.358;2023-02-13T02:25:12;98557.31;;;-0.05;96.00
68197;BME280;55019;49.382;11.358;2023-02-13T02:32:56;98557.69;;;0.08;94.71
68197;BME280;55019;49.382;11.358;2023-02-13T02:43:46;98550.47;;;-0.03;95.11
68197;BME280;55019;49.382;11.358;2023-02-13T02:46:24;98549.94;;;-0.13;95.49
68197;BME280;55019;49.382;11.358;2023-02-13T02:49:06;98551.72;;;-0.15;95.36
68197;BME280;55019;49.382;11.358;2023-02-13T02:52:04;98551.66;;;-0.13;94.92
68197;BME280;55019;49.382;11.358;2023-02-13T02:54:38;98562.66;;;-0.13;93.97
68197;BME280;55019;49.382;11.358;2023-02-13T02:57:29;98558.06;;;-0.28;93.91
68197;BME280;55019;49.382;11.358;2023-02-13T03:00:20;98547.84;;;-0.26;94.59
68197;BME280;55019;49.382;11.358;2023-02-13T03:03:24;98547.00;;;-0.25;94.36
68197;BME280;55019;49.382;11.358;2023-02-13T03:06:14;98547.78;;;-0.23;94.98
68197;BME280;55019;49.382;11.358;2023-02-13T03:08:44;98547.00;;;-0.25;95.07
68197;BME280;55019;49.382;11.358;2023-02-13T03:11:29;98548.72;;;-0.27;94.37
68197;BME280;55019;49.382;11.358;2023-02-13T03:14:17;98545.81;;;-0.41;95.03
68197;BME280;55019;49.382;11.358;2023-02-13T03:16:43;98547.63;;;-0.45;95.06
68197;BME280;55019;49.382;11.358;2023-02-13T03:23:12;98547.69;;;-0.46;95.74
68197;BME280;55019;49.382;11.358;2023-02-13T03:25:35;98550.19;;;-0.45;95.13
68197;BME280;55019;49.382;11.358;2023-02-13T03:28:12;98556.47;;;-0.56;94.50
68197;BME280;55019;49.382;11.358;2023-02-13T03:36:42;98545.34;;;-0.52;94.64
68197;BME280;55019;49.382;11.358;2023-02-13T03:42:38;98543.19;;;-0.64;95.56
68197;BME280;55019;49.382;11.358;2023-02-13T03:45:14;98549.75;;;-0.59;95.11
68197;BME280;55019;49.382;11.358;2023-02-13T03:48:03;98544.75;;;-0.60;94.09
68197;BME280;55019;49.382;11.358;2023-02-13T03:50:58;98557.19;;;-0.53;93.85
68197;BME280;55019;49.382;11.358;2023-02-13T03:53:27;98549.88;;;-0.62;94.09
68197;BME280;55019;49.382;11.358;2023-02-13T03:55:54;98553.88;;;-0.82;94.96
68197;BME280;55019;49.382;11.358;2023-02-13T03:58:45;98558.81;;;-0.76;94.84
68197;BME280;55019;49.382;11.358;2023-02-13T04:01:34;98561.84;;;-0.65;95.06
68197;BME280;55019;49.382;11.358;2023-02-13T04:09:24;98556.47;;;-0.56;93.93
68197;BME280;55019;49.382;11.358;2023-02-13T04:11:59;98563.31;;;-0.58;93.99
68197;BME280;55019;49.382;11.358;2023-02-13T04:14:35;98552.00;;;-0.76;94.65
68197;BME280;55019;49.382;11.358;2023-02-13T04:17:09;98561.19;;;-0.72;94.75
68197;BME280;55019;49.382;11.358;2023-02-13T04:19:38;98556.94;;;-0.71;95.15
68197;BME280;55019;49.382;11.358;2023-02-13T04:22:03;98557.53;;;-0.63;95.29
68197;BME280;55019;49.382;11.358;2023-02-13T04:24:29;98557.09;;;-0.76;95.23
68197;BME280;55019;49.382;11.358;2023-02-13T04:26:55;98562.56;;;-0.62;94.60
68197;BME280;55019;49.382;11.358;2023-02-13T04:29:22;98566.03;;;-0.64;94.62
68197;BME280;55019;49.382;11.358;2023-02-13T04:31:48;98562.94;;;-0.74;94.79
68197;BME280;55019;49.382;11.358;2023-02-13T04:34:13;98557.13;;;-0.77;95.11
68197;BME280;55019;49.382;11.358;2023-02-13T04:36:39;98562.03;;;-0.71;94.81
68197;BME280;55019;49.382;11.358;2023-02-13T04:39:04;98561.94;;;-0.68;94.42
68197;BME280;55019;49.382;11.358;2023-02-13T04:41:29;98554.34;;;-0.70;94.63
68197;BME280;55019;49.382;11.358;2023-02-13T04:43:55;98553.63;;;-0.73;95.28
68197;BME280;55019;49.382;11.358;2023-02-13T04:46:20;98554.34;;;-0.70;95.24
68197;BME280;55019;49.382;11.358;2023-02-13T04:48:45;98553.56;;;-0.72;95.04
68197;BME280;55019;49.382;11.358;2023-02-13T04:51:11;98549.69;;;-0.83;94.66
68197;BME280;55019;49.382;11.358;2023-02-13T04:53:36;98554.06;;;-0.88;94.93
68197;BME280;55019;49.382;11.358;2023-02-13T04:56:02;98565.88;;;-0.87;94.92
68197;BME280;55019;49.382;11.358;2023-02-13T04:58:27;98560.13;;;-0.92;95.18
68197;BME280;55019;49.382;11.358;2023-02-13T05:00:53;98562.25;;;-1.06;95.71
68197;BME280;55019;49.382;11.358;2023-02-13T05:03:18;98557.88;;;-1.01;95.24
68197;BME280;55019;49.382;11.358;2023-02-13T05:05:43;98551.69;;;-0.93;94.80
68197;BME280;55019;49.382;11.358;2023-02-13T05:08:09;98554.72;;;-1.09;94.54
68197;BME280;55019;49.382;11.358;2023-02-13T05:10:35;98549.88;;;-1.17;94.51
68197;BME280;55019;49.382;11.358;2023-02-13T05:13:00;98555.00;;;-1.18;94.55
68197;BME280;55019;49.382;11.358;2023-02-13T05:15:26;98554.63;;;-1.06;94.51
68197;BME280;55019;49.382;11.358;2023-02-13T05:17:51;98562.47;;;-1.14;95.35
68197;BME280;55019;49.382;11.358;2023-02-13T05:20:17;98563.41;;;-1.16;95.09
68197;BME280;55019;49.382;11.358;2023-02-13T05:22:44;98569.28;;;-1.16;94.75
68197;BME280;55019;49.382;11.358;2023-02-13T05:25:28;98563.41;;;-1.16;94.62
68197;BME280;55019;49.382;11.358;2023-02-13T05:27:54;98569.47;;;-1.22;94.66
68197;BME280;55019;49.382;11.358;2023-02-13T05:30:19;98565.25;;;-1.21;94.27
68197;BME280;55019;49.382;11.358;2023-02-13T05:32:45;98571.44;;;-1.02;94.64
68197;BME280;55019;49.382;11.358;2023-02-13T05:35:10;98571.78;;;-1.14;94.48
68197;BME280;55019;49.382;11.358;2023-02-13T05:37:35;98579.13;;;-1.05;94.56
68197;BME280;55019;49.382;11.358;2023-02-13T05:40:01;98581.84;;;-1.11;94.75
68197;BME280;55019;49.382;11.358;2023-02-13T05:42:26;98584.66;;;-1.20;95.61
68197;BME280;55019;49.382;11.358;2023-02-13T05:44:52;98578.88;;;-1.25;95.54
68197;BME280;55019;49.382;11.358;2023-02-13T05:47:17;98583.19;;;-1.29;95.37
68197;BME280;55019;49.382;11.358;2023-02-13T05:49:43;98576.94;;;-1.17;95.86
68197;BME280;55019;49.382;11.358;2023-02-13T05:52:08;98587.72;;;-1.11;95.43
68197;BME280;55019;49.382;11.358;2023-02-13T05:54:33;98582.75;;;-1.14;95.65
68197;BME280;55019;49.382;11.358;2023-02-13T05:56:59;98580.44;;;-1.21;96.18
68197;BME280;55019;49.382;11.358;2023-02-13T05:59:24;98578.66;;;-1.18;96.60
68197;BME280;55019;49.382;11.358;2023-02-13T06:01:49;98589.47;;;-1.13;96.02
68197;BME280;55019;49.382;11.358;2023-02-13T06:04:15;98584.38;;;-1.11;96.86
68197;BME280;55019;49.382;11.358;2023-02-13T06:06:40;98587.97;;;-1.18;96.54
68197;BME280;55019;49.382;11.358;2023-02-13T06:09:06;98585.63;;;-1.24;96.35
68197;BME280;55019;49.382;11.358;2023-02-13T06:11:31;98594.97;;;-1.26;95.64
68197;BME280;55019;49.382;11.358;2023-02-13T06:13:56;98593.94;;;-1.21;96.64
68197;BME280;55019;49.382;11.358;2023-02-13T06:16:22;98599.03;;;-1.21;96.39
68197;BME280;55019;49.382;11.358;2023-02-13T06:18:47;98599.88;;;-1.20;96.55
68197;BME280;55019;49.382;11.358;2023-02-13T06:21:12;98600.03;;;-1.26;96.07
68197;BME280;55019;49.382;11.358;2023-02-13T06:23:38;98607.78;;;-1.32;95.97
68197;BME280;55019;49.382;11.358;2023-02-13T06:26:05;98615.13;;;-1.22;95.72
68197;BME280;55019;49.382;11.358;2023-02-13T06:28:31;98601.72;;;-1.27;96.03
68197;BME280;55019;49.382;11.358;2023-02-13T06:30:56;98603.47;;;-1.27;96.11
68197;BME280;55019;49.382;11.358;2023-02-13T06:33:22;98611.19;;;-1.33;96.54
68197;BME280;55019;49.382;11.358;2023-02-13T06:35:47;98610.88;;;-1.21;96.46
68197;BME280;55019;49.382;11.358;2023-02-13T06:38:13;98613.16;;;-1.12;96.50
68197;BME280;55019;49.382;11.358;2023-02-13T06:40:39;98605.47;;;-1.09;95.98
68197;BME280;55019;49.382;11.358;2023-02-13T06:43:04;98618.06;;;-1.06;96.92
68197;BME280;55019;49.382;11.358;2023-02-13T06:45:30;98615.16;;;-0.94;96.71
68197;BME280;55019;49.382;11.358;2023-02-13T06:47:55;98612.44;;;-0.88;96.25
68197;BME280;55019;49.382;11.358;2023-02-13T06:50:20;98614.16;;;-0.89;95.98
68197;BME280;55019;49.382;11.358;2023-02-13T06:52:47;98615.94;;;-0.92;96.54
68197;BME280;55019;49.382;11.358;2023-02-13T06:55:13;98623.66;;;-0.95;97.12
68197;BME280;55019;49.382;11.358;2023-02-13T06:57:40;98629.22;;;-0.84;96.28
68197;BME280;55019;49.382;11.358;2023-02-13T07:00:06;98628.44;;;-0.86;96.72
68197;BME280;55019;49.382;11.358;2023-02-13T07:02:31;98634.28;;;-0.83;96.84
68197;BME280;55019;49.382;11.358;2023-02-13T07:04:57;98634.00;;;-0.74;96.38
68197;BME280;55019;49.382;11.358;2023-02-13T07:07:23;98633.69;;;-0.63;96.54
68197;BME280;55019;49.382;11.358;2023-02-13T07:09:48;98628.66;;;-0.65;96.48
68197;BME280;55019;49.382;11.358;2023-02-13T07:12:13;98632.63;;;-0.56;95.67
68197;BME280;55019;49.382;11.358;2023-02-13T07:14:57;98628.94;;;-0.46;95.74
68197;BME280;55019;49.382;11.358;2023-02-13T07:17:22;98633.81;;;-0.40;95.40
68197;BME280;55019;49.382;11.358;2023-02-13T07:19:48;98637.03;;;-0.35;95.68
68197;BME280;55019;49.382;11.358;2023-02-13T07:22:13;98630.63;;;-0.19;95.68
68197;BME280;55019;49.382;11.358;2023-02-13T07:24:38;98631.94;;;-0.08;95.62
68197;BME280;55019;49.382;11.358;2023-02-13T07:27:04;98624.00;;;-0.23;96.63
68197;BME280;55019;49.382;11.358;2023-02-13T07:29:30;98632.09;;;-0.12;96.56
68197;BME280;55019;49.382;11.358;2023-02-13T07:31:55;98631.59;;;0.02;96.50
68197;BME280;55019;49.382;11.358;2023-02-13T07:34:21;98631.25;;;0.13;96.21
68197;BME280;55019;49.382;11.358;2023-02-13T07:36:46;98639.44;;;0.21;96.49
68197;BME280;55019;49.382;11.358;2023-02-13T07:39:12;98641.53;;;0.34;95.74
68197;BME280;55019;49.382;11.358;2023-02-13T07:41:37;98641.13;;;0.46;95.66
68197;BME280;55019;49.382;11.358;2023-02-13T07:44:02;98640.69;;;0.58;95.25
68197;BME280;55019;49.382;11.358;2023-02-13T07:46:28;98642.78;;;0.70;94.90
68197;BME280;55019;49.382;11.358;2023-02-13T07:48:53;98639.13;;;0.79;94.57
68197;BME280;55019;49.382;11.358;2023-02-13T07:51:19;98640.28;;;0.93;95.17
68197;BME280;55019;49.382;11.358;2023-02-13T07:53:45;98642.38;;;1.05;95.26
68197;BME280;55019;49.382;11.358;2023-02-13T07:56:10;98641.50;;;1.29;94.64
68197;BME280;55019;49.382;11.358;2023-02-13T07:58:36;98641.16;;;1.38;94.06
68197;BME280;55019;49.382;11.358;2023-02-13T08:01:06;98630.25;;;1.56;93.74
68197;BME280;55019;49.382;11.358;2023-02-13T08:03:32;98640.84;;;1.67;92.84
68197;BME280;55019;49.382;11.358;2023-02-13T08:05:58;98638.19;;;1.70;92.64
68197;BME280;55019;49.382;11.358;2023-02-13T08:08:23;98656.53;;;1.99;92.47
68197;BME280;55019;49.382;11.358;2023-02-13T08:10:49;98638.41;;;2.27;90.83
68197;BME280;55019;49.382;11.358;2023-02-13T08:13:52;98646.09;;;2.85;88.30
68197;BME280;55019;49.382;11.358;2023-02-13T08:16:18;98640.19;;;5.11;79.54
68197;BME280;55019;49.382;11.358;2023-02-13T08:18:43;98641.19;;;6.60;71.62
68197;BME280;55019;49.382;11.358;2023-02-13T08:21:09;98638.25;;;9.30;61.87
68197;BME280;55019;49.382;11.358;2023-02-13T08:23:34;98627.31;;;13.02;50.33
68197;BME280;55019;49.382;11.358;2023-02-13T08:26:00;98621.94;;;13.54;46.86
68197;BME280;55019;49.382;11.358;2023-02-13T08:28:27;98624.91;;;14.08;46.58
68197;BME280;55019;49.382;11.358;2023-02-13T08:30:53;98625.03;;;13.48;45.55
68197;BME280;55019;49.382;11.358;2023-02-13T08:33:18;98635.81;;;12.73;48.81
68197;BME280;55019;49.382;11.358;2023-02-13T08:35:44;98629.78;;;13.92;45.81
68197;BME280;55019;49.382;11.358;2023-02-13T08:38:09;98629.88;;;13.62;46.78
68197;BME280;55019;49.382;11.358;2023-02-13T08:40:35;98631.72;;;14.94;43.70
68197;BME280;55019;49.382;11.358;2023-02-13T08:43:02;98630.19;;;15.74;42.68
68197;BME280;55019;49.382;11.358;2023-02-13T08:45:28;98629.03;;;16.03;40.22
68197;BME280;55019;49.382;11.358;2023-02-13T08:48:00;98636.13;;;13.20;45.68
68197;BME280;55019;49.382;11.358;2023-02-13T08:50:28;98639.97;;;11.04;51.54
68197;BME280;55019;49.382;11.358;2023-02-13T08:52:53;98640.41;;;9.23;57.74
68197;BME280;55019;49.382;11.358;2023-02-13T08:55:19;98640.91;;;8.15;61.66
68197;BME280;55019;49.382;11.358;2023-02-13T08:57:44;98639.84;;;7.52;64.45
68197;BME280;55019;49.382;11.358;2023-02-13T09:00:11;98638.66;;;7.02;67.72
68197;BME280;55019;49.382;11.358;2023-02-13T09:02:36;98643.44;;;6.66;69.47
68197;BME280;55019;49.382;11.358;2023-02-13T09:05:01;98635.84;;;6.49;71.26
68197;BME280;55019;49.382;11.358;2023-02-13T09:07:27;98640.09;;;6.05;73.63
68197;BME280;55019;49.382;11.358;2023-02-13T09:09:52;98638.06;;;6.25;73.44
68197;BME280;55019;49.382;11.358;2023-02-13T09:12:18;98639.66;;;6.28;72.98
68197;BME280;55019;49.382;11.358;2023-02-13T09:14:43;98633.50;;;5.85;74.87
68197;BME280;55019;49.382;11.358;2023-02-13T09:17:08;98627.22;;;6.06;73.93
68197;BME280;55019;49.382;11.358;2023-02-13T09:19:34;98635.81;;;6.35;73.68
68197;BME280;55019;49.382;11.358;2023-02-13T09:21:59;98629.03;;;6.04;74.22
68197;BME280;55019;49.382;11.358;2023-02-13T09:24:25;98632.22;;;5.78;75.44
68197;BME280;55019;49.382;11.358;2023-02-13T09:26:50;98627.03;;;6.09;76.75
68197;BME280;55019;49.382;11.358;2023-02-13T09:29:16;98630.50;;;6.08;76.48
68197;BME280;55019;49.382;11.358;2023-02-13T09:31:41;98635.03;;;5.89;76.21
68197;BME280;55019;49.382;11.358;2023-02-13T09:34:07;98627.06;;;5.94;76.13
68197;BME280;55019;49.382;11.358;2023-02-13T09:36:32;98632.34;;;6.36;75.11
68197;BME280;55019;49.382;11.358;2023-02-13T09:38:58;98627.47;;;6.75;72.45
68197;BME280;55019;49.382;11.358;2023-02-13T09:41:36;98627.72;;;7.26;72.25
68197;BME280;55019;49.382;11.358;2023-02-13T09:44:13;98635.31;;;7.82;69.57
68197;BME280;55019;49.382;11.358;2023-02-13T09:47:15;98636.56;;;8.42;66.14
68197;BME280;55019;49.382;11.358;2023-02-13T09:49:47;98634.88;;;9.65;61.57
68197;BME280;55019;49.382;11.358;2023-02-13T09:52:14;98640.91;;;9.41;61.38
68197;BME280;55019;49.382;11.358;2023-02-13T09:54:40;98629.97;;;10.09;60.20
68197;BME280;55019;49.382;11.358;2023-02-13T09:57:30;98630.00;;;11.00;57.04
68197;BME280;55019;49.382;11.358;2023-02-13T10:00:14;98630.69;;;12.41;52.51
68197;BME280;55019;49.382;11.358;2023-02-13T10:13:15;98638.63;;;18.23;38.97
68197;BME280;55019;49.382;11.358;2023-02-13T10:15:55;98635.63;;;17.28;38.53
68197;BME280;55019;49.382;11.358;2023-02-13T10:18:40;98635.56;;;16.69;37.04
68197;BME280;55019;49.382;11.358;2023-02-13T10:21:07;98637.88;;;20.03;32.39
68197;BME280;55019;49.382;11.358;2023-02-13T10:23:43;98631.16;;;18.68;35.20
68197;BME280;55019;49.382;11.358;2023-02-13T10:26:17;98629.59;;;19.37;31.92
68197;BME280;55019;49.382;11.358;2023-02-13T10:28:57;98635.50;;;19.78;31.05
68197;BME280;55019;49.382;11.358;2023-02-13T10:31:44;98633.06;;;19.30;31.97
68197;BME280;55019;49.382;11.358;2023-02-13T10:34:16;98627.53;;;18.29;33.86
68197;BME280;55019;49.382;11.358;2023-02-13T10:36:46;98636.38;;;16.69;36.52
68197;BME280;55019;49.382;11.358;2023-02-13T10:39:27;98626.09;;;20.89;30.57
68197;BME280;55019;49.382;11.358;2023-02-13T10:45:05;98619.44;;;22.86;26.87
68197;BME280;55019;49.382;11.358;2023-02-13T10:50:20;98622.00;;;24.02;25.00
68197;BME280;55019;49.382;11.358;2023-02-13T11:01:11;98611.75;;;22.07;27.13
68197;BME280;55019;49.382;11.358;2023-02-13T11:03:38;98612.97;;;22.25;26.51
68197;BME280;55019;49.382;11.358;2023-02-13T11:06:07;98607.56;;;21.34;27.30
68197;BME280;55019;49.382;11.358;2023-02-13T11:08:37;98604.16;;;23.02;26.28
68197;BME280;55019;49.382;11.358;2023-02-13T11:11:27;98612.06;;;20.96;28.93
68197;BME280;55019;49.382;11.358;2023-02-13T11:17:01;98609.56;;;23.55;24.91
68197;BME280;55019;49.382;11.358;2023-02-13T11:19:52;98601.09;;;26.13;22.10
68197;BME280;55019;49.382;11.358;2023-02-13T11:25:17;98610.34;;;23.49;25.19
68197;BME280;55019;49.382;11.358;2023-02-13T11:27:44;98605.81;;;23.37;24.62
68197;BME280;55019;49.382;11.358;2023-02-13T11:33:00;98603.78;;;24.39;24.19
68197;BME280;55019;49.382;11.358;2023-02-13T11:35:31;98609.53;;;17.69;32.79
68197;BME280;55019;49.382;11.358;2023-02-13T11:41:11;98613.16;;;14.42;40.37
68197;BME280;55019;49.382;11.358;2023-02-13T11:43:47;98618.09;;;14.26;40.59
68197;BME280;55019;49.382;11.358;2023-02-13T11:49:04;98621.69;;;13.27;42.28
68197;BME280;55019;49.382;11.358;2023-02-13T11:51:57;98610.34;;;14.90;39.65
68197;BME280;55019;49.382;11.358;2023-02-13T11:57:21;98613.38;;;15.68;37.12
68197;BME280;55019;49.382;11.358;2023-02-13T11:59:48;98605.72;;;18.21;32.82
68197;BME280;55019;49.382;11.358;2023-02-13T12:02:43;98595.50;;;21.25;29.41
68197;BME280;55019;49.382;11.358;2023-02-13T12:05:21;98598.53;;;24.52;23.97
68197;BME280;55019;49.382;11.358;2023-02-13T12:07:47;98595.91;;;24.85;23.29
68197;BME280;55019;49.382;11.358;2023-02-13T12:10:23;98594.03;;;21.51;26.89
68197;BME280;55019;49.382;11.358;2023-02-13T12:12:58;98584.00;;;21.26;27.97
68197;BME280;55019;49.382;11.358;2023-02-13T12:15:29;98588.34;;;20.67;27.75
68197;BME280;55019;49.382;11.358;2023-02-13T12:31:32;98574.53;;;25.05;23.35
68197;BME280;55019;49.382;11.358;2023-02-13T12:34:31;98570.84;;;22.67;25.33
68197;BME280;55019;49.382;11.358;2023-02-13T12:39:40;98548.66;;;23.50;24.84
68197;BME280;55019;49.382;11.358;2023-02-13T12:48:21;98548.81;;;17.99;31.27
68197;BME280;55019;49.382;11.358;2023-02-13T13:04:46;98542.53;;;21.57;27.40
68197;BME280;55019;49.382;11.358;2023-02-13T13:07:43;98544.78;;;21.74;26.88
68197;BME280;55019;49.382;11.358;2023-02-13T13:16:01;98536.25;;;20.20;28.79
68197;BME280;55019;49.382;11.358;2023-02-13T13:18:38;98532.66;;;22.57;26.17
68197;BME280;55019;49.382;11.358;2023-02-13T13:23:51;98540.75;;;21.14;26.73
68197;BME280;55019;49.382;11.358;2023-02-13T13:26:30;98534.28;;;22.58;25.02
68197;BME280;55019;49.382;11.358;2023-02-13T13:29:00;98532.16;;;20.54;28.08
68197;BME280;55019;49.382;11.358;2023-02-13T13:31:28;98539.06;;;19.11;29.91
68197;BME280;55019;49.382;11.358;2023-02-13T13:33:57;98531.34;;;21.19;27.60
68197;BME280;55019;49.382;11.358;2023-02-13T13:36:50;98532.22;;;19.18;30.35
68197;BME280;55019;49.382;11.358;2023-02-13T13:42:06;98534.13;;;21.32;28.14
68197;BME280;55019;49.382;11.358;2023-02-13T13:50:27;98524.97;;;19.28;30.05
68197;BME280;55019;49.382;11.358;2023-02-13T14:03:40;98517.84;;;19.75;29.16
68197;BME280;55019;49.382;11.358;2023-02-13T14:06:10;98510.75;;;21.73;26.89
68197;BME280;55019;49.382;11.358;2023-02-13T14:11:03;98521.00;;;18.78;31.34
68197;BME280;55019;49.382;11.358;2023-02-13T14:13:38;98522.63;;;20.16;29.06
68197;BME280;55019;49.382;11.358;2023-02-13T14:16:08;98511.00;;;20.19;28.61
68197;BME280;55019;49.382;11.358;2023-02-13T14:18:34;98515.06;;;20.58;28.63
68197;BME280;55019;49.382;11.358;2023-02-13T14:21:01;98507.72;;;21.90;26.79
68197;BME280;55019;49.382;11.358;2023-02-13T14:23:46;98519.88;;;19.65;29.87
68197;BME280;55019;49.382;11.358;2023-02-13T14:28:55;98513.94;;;20.52;28.38
68197;BME280;55019;49.382;11.358;2023-02-13T14:34:04;98514.34;;;18.51;31.59
68197;BME280;55019;49.382;11.358;2023-02-13T14:36:32;98518.69;;;17.71;32.37
68197;BME280;55019;49.382;11.358;2023-02-13T14:39:05;98519.31;;;16.57;34.51
68197;BME280;55019;49.382;11.358;2023-02-13T14:44:35;98513.72;;;19.03;31.27
68197;BME280;55019;49.382;11.358;2023-02-13T14:47:16;98523.19;;;18.26;31.54
68197;BME280;55019;49.382;11.358;2023-02-13T14:49:44;98528.56;;;17.36;33.50
68197;BME280;55019;49.382;11.358;2023-02-13T14:52:20;98530.41;;;14.73;38.37
68197;BME280;55019;49.382;11.358;2023-02-13T14:55:01;98529.03;;;14.24;39.77
68197;BME280;55019;49.382;11.358;2023-02-13T14:57:39;98524.06;;;14.85;38.50
68197;BME280;55019;49.382;11.358;2023-02-13T15:02:38;98519.63;;;16.11;36.42
68197;BME280;55019;49.382;11.358;2023-02-13T15:05:10;98515.22;;;15.59;37.81
68197;BME280;55019;49.382;11.358;2023-02-13T15:07:43;98509.09;;;18.03;33.04
68197;BME280;55019;49.382;11.358;2023-02-13T15:10:38;98507.00;;;16.24;35.74
68197;BME280;55019;49.382;11.358;2023-02-13T15:13:14;98504.91;;;16.45;35.72
68197;BME280;55019;49.382;11.358;2023-02-13T15:15:40;98515.28;;;16.37;35.38
68197;BME280;55019;49.382;11.358;2023-02-13T15:18:30;98503.00;;;16.55;35.54
68197;BME280;55019;49.382;11.358;2023-02-13T15:20:59;98505.91;;;17.44;33.71
68197;BME280;55019;49.382;11.358;2023-02-13T15:23:30;98505.00;;;18.17;32.60
68197;BME280;55019;49.382;11.358;2023-02-13T15:26:02;98512.59;;;17.54;32.91
68197;BME280;55019;49.382;11.358;2023-02-13T15:28:28;98511.66;;;16.81;35.22
68197;BME280;55019;49.382;11.358;2023-02-13T15:33:21;98501.88;;;16.14;36.06
68197;BME280;55019;49.382;11.358;2023-02-13T15:36:03;98506.97;;;13.71;41.19
68197;BME280;55019;49.382;11.358;2023-02-13T15:38:35;98516.31;;;11.94;45.12
68197;BME280;55019;49.382;11.358;2023-02-13T15:41:11;98518.94;;;9.62;52.01
68197;BME280;55019;49.382;11.358;2023-02-13T15:43:52;98514.78;;;8.40;56.81
68197;BME280;55019;49.382;11.358;2023-02-13T15:46:30;98523.91;;;8.06;58.79
68197;BME280;55019;49.382;11.358;2023-02-13T15:49:03;98518.50;;;7.45;61.53
68197;BME280;55019;49.382;11.358;2023-02-13T15:51:30;98523.31;;;6.83;64.84